sensor_id;sensor_type;location;lat;lon;timestamp;P1;durP1;ratioP1;P2;durP2;ratioP2
60464;SDS011;46314;52.392;9.758;2023-04-16T00:00:59;27.92;;;24.42;;
60464;SDS011;46314;52.392;9.758;2023-04-16T00:03:26;26.95;;;22.58;;
60464;SDS011;46314;52.392;9.758;2023-04-16T00:05:53;28.95;;;22.25;;
60464;SDS011;46314;52.392;9.758;2023-04-16T00:08:19;25.98;;;23.30;;
60464;SDS011;46314;52.392;9.758;2023-04-16T00:10:45;25.98;;;23.25;;
60464;SDS011;46314;52.392;9.758;2023-04-16T00:13:12;29.20;;;23.67;;
60464;SDS011;46314;52.392;9.758;2023-04-16T00:15:39;27.65;;;23.42;;
60464;SDS011;46314;52.392;9.758;2023-04-16T00:18:06;27.48;;;23.98;;
60464;SDS011;46314;52.392;9.758;2023-04-16T00:20:32;28.67;;;25.55;;
60464;SDS011;46314;52.392;9.758;2023-04-16T00:22:58;31.20;;;27.05;;
60464;SDS011;46314;52.392;9.758;2023-04-16T00:25:25;26.63;;;23.83;;
60464;SDS011;46314;52.392;9.758;2023-04-16T00:27:51;27.98;;;24.98;;
60464;SDS011;46314;52.392;9.758;2023-04-16T00:30:18;28.92;;;24.83;;
60464;SDS011;46314;52.392;9.758;2023-04-16T00:32:45;31.55;;;25.63;;
60464;SDS011;46314;52.392;9.758;2023-04-16T00:35:12;28.02;;;25.02;;
60464;SDS011;46314;52.392;9.758;2023-04-16T00:37:38;30.15;;;26.00;;
60464;SDS011;46314;52.392;9.758;2023-04-16T00:40:05;29.73;;;24.83;;
60464;SDS011;46314;52.392;9.758;2023-04-16T00:42:32;30.38;;;26.35;;
60464;SDS011;46314;52.392;9.758;2023-04-16T00:44:59;34.85;;;27.00;;
60464;SDS011;46314;52.392;9.758;2023-04-16T00:47:25;29.30;;;25.83;;
60464;SDS011;46314;52.392;9.758;2023-04-16T00:49:53;31.85;;;26.85;;
60464;SDS011;46314;52.392;9.758;2023-04-16T00:52:19;31.70;;;27.17;;
60464;SDS011;46314;52.392;9.758;2023-04-16T00:54:46;32.75;;;27.35;;
60464;SDS011;46314;52.392;9.758;2023-04-16T00:57:13;30.83;;;27.52;;
60464;SDS011;46314;52.392;9.758;2023-04-16T00:59:40;32.05;;;27.25;;
60464;SDS011;46314;52.392;9.758;2023-04-16T01:02:07;30.42;;;27.15;;
60464;SDS011;46314;52.392;9.758;2023-04-16T01:04:33;35.33;;;27.10;;
60464;SDS011;46314;52.392;9.758;2023-04-16T01:07:01;30.30;;;26.90;;
60464;SDS011;46314;52.392;9.758;2023-04-16T01:09:28;33.90;;;25.73;;
60464;SDS011;46314;52.392;9.758;2023-04-16T01:11:54;29.83;;;26.67;;
60464;SDS011;46314;52.392;9.758;2023-04-16T01:14:21;29.08;;;26.00;;
60464;SDS011;46314;52.392;9.758;2023-04-16T01:16:47;30.92;;;26.20;;
60464;SDS011;46314;52.392;9.758;2023-04-16T01:19:13;31.25;;;26.85;;
60464;SDS011;46314;52.392;9.758;2023-04-16T01:21:41;30.48;;;27.25;;
60464;SDS011;46314;52.392;9.758;2023-04-16T01:24:07;37.00;;;28.05;;
60464;SDS011;46314;52.392;9.758;2023-04-16T01:26:34;34.63;;;26.83;;
60464;SDS011;46314;52.392;9.758;2023-04-16T01:29:01;31.60;;;25.85;;
60464;SDS011;46314;52.392;9.758;2023-04-16T01:31:27;37.00;;;27.33;;
60464;SDS011;46314;52.392;9.758;2023-04-16T01:33:54;30.33;;;25.98;;
60464;SDS011;46314;52.392;9.758;2023-04-16T01:36:20;30.25;;;26.98;;
60464;SDS011;46314;52.392;9.758;2023-04-16T01:38:48;35.22;;;26.67;;
60464;SDS011;46314;52.392;9.758;2023-04-16T01:41:15;38.00;;;27.25;;
60464;SDS011;46314;52.392;9.758;2023-04-16T01:43:41;31.73;;;26.52;;
60464;SDS011;46314;52.392;9.758;2023-04-16T01:46:10;29.92;;;26.27;;
60464;SDS011;46314;52.392;9.758;2023-04-16T01:48:38;32.92;;;27.25;;
60464;SDS011;46314;52.392;9.758;2023-04-16T01:51:05;35.25;;;27.42;;
60464;SDS011;46314;52.392;9.758;2023-04-16T01:53:31;30.77;;;27.27;;
60464;SDS011;46314;52.392;9.758;2023-04-16T01:55:59;31.58;;;26.45;;
60464;SDS011;46314;52.392;9.758;2023-04-16T01:58:26;34.78;;;29.35;;
60464;SDS011;46314;52.392;9.758;2023-04-16T02:00:53;31.75;;;26.67;;
60464;SDS011;46314;52.392;9.758;2023-04-16T02:03:20;35.30;;;28.58;;
60464;SDS011;46314;52.392;9.758;2023-04-16T02:05:47;34.58;;;28.85;;
60464;SDS011;46314;52.392;9.758;2023-04-16T02:08:13;33.85;;;28.48;;
60464;SDS011;46314;52.392;9.758;2023-04-16T02:10:39;33.35;;;27.05;;
60464;SDS011;46314;52.392;9.758;2023-04-16T02:13:07;32.22;;;27.60;;
60464;SDS011;46314;52.392;9.758;2023-04-16T02:15:33;35.08;;;28.05;;
60464;SDS011;46314;52.392;9.758;2023-04-16T02:18:00;32.17;;;28.77;;
60464;SDS011;46314;52.392;9.758;2023-04-16T02:20:26;35.75;;;27.20;;
60464;SDS011;46314;52.392;9.758;2023-04-16T02:22:53;35.20;;;28.55;;
60464;SDS011;46314;52.392;9.758;2023-04-16T02:25:19;35.67;;;30.30;;
60464;SDS011;46314;52.392;9.758;2023-04-16T02:27:45;31.52;;;26.50;;
60464;SDS011;46314;52.392;9.758;2023-04-16T02:30:13;34.28;;;28.92;;
60464;SDS011;46314;52.392;9.758;2023-04-16T02:32:39;33.38;;;26.70;;
60464;SDS011;46314;52.392;9.758;2023-04-16T02:35:06;33.28;;;27.42;;
60464;SDS011;46314;52.392;9.758;2023-04-16T02:37:33;28.33;;;24.83;;
60464;SDS011;46314;52.392;9.758;2023-04-16T02:39:59;32.95;;;27.52;;
60464;SDS011;46314;52.392;9.758;2023-04-16T02:42:25;33.33;;;28.10;;
60464;SDS011;46314;52.392;9.758;2023-04-16T02:44:52;33.45;;;26.42;;
60464;SDS011;46314;52.392;9.758;2023-04-16T02:47:19;32.25;;;27.20;;
60464;SDS011;46314;52.392;9.758;2023-04-16T02:49:46;36.00;;;29.02;;
60464;SDS011;46314;52.392;9.758;2023-04-16T02:52:12;32.17;;;27.15;;
60464;SDS011;46314;52.392;9.758;2023-04-16T02:54:40;39.25;;;27.73;;
60464;SDS011;46314;52.392;9.758;2023-04-16T02:57:07;34.10;;;28.25;;
60464;SDS011;46314;52.392;9.758;2023-04-16T02:59:33;36.28;;;29.40;;
60464;SDS011;46314;52.392;9.758;2023-04-16T03:01:59;35.05;;;28.20;;
60464;SDS011;46314;52.392;9.758;2023-04-16T03:04:27;34.38;;;29.15;;
60464;SDS011;46314;52.392;9.758;2023-04-16T03:06:54;30.38;;;27.00;;
60464;SDS011;46314;52.392;9.758;2023-04-16T03:09:20;32.00;;;26.23;;
60464;SDS011;46314;52.392;9.758;2023-04-16T03:11:46;36.20;;;29.35;;
60464;SDS011;46314;52.392;9.758;2023-04-16T03:14:13;43.83;;;28.98;;
60464;SDS011;46314;52.392;9.758;2023-04-16T03:16:39;35.80;;;27.75;;
60464;SDS011;46314;52.392;9.758;2023-04-16T03:19:05;33.88;;;28.13;;
60464;SDS011;46314;52.392;9.758;2023-04-16T03:21:33;38.58;;;30.20;;
60464;SDS011;46314;52.392;9.758;2023-04-16T03:24:00;36.50;;;29.15;;
60464;SDS011;46314;52.392;9.758;2023-04-16T03:26:26;40.15;;;29.75;;
60464;SDS011;46314;52.392;9.758;2023-04-16T03:28:53;36.45;;;28.13;;
60464;SDS011;46314;52.392;9.758;2023-04-16T03:31:19;31.40;;;26.27;;
60464;SDS011;46314;52.392;9.758;2023-04-16T03:33:45;38.28;;;29.33;;
60464;SDS011;46314;52.392;9.758;2023-04-16T03:36:12;37.05;;;28.73;;
60464;SDS011;46314;52.392;9.758;2023-04-16T03:38:40;32.83;;;28.42;;
60464;SDS011;46314;52.392;9.758;2023-04-16T03:41:06;33.97;;;26.70;;
60464;SDS011;46314;52.392;9.758;2023-04-16T03:43:32;35.15;;;28.58;;
60464;SDS011;46314;52.392;9.758;2023-04-16T03:45:59;35.47;;;27.73;;
60464;SDS011;46314;52.392;9.758;2023-04-16T03:48:25;37.70;;;28.75;;
60464;SDS011;46314;52.392;9.758;2023-04-16T03:50:52;34.00;;;27.65;;
60464;SDS011;46314;52.392;9.758;2023-04-16T03:53:18;38.50;;;29.90;;
60464;SDS011;46314;52.392;9.758;2023-04-16T03:55:48;37.08;;;27.77;;
60464;SDS011;46314;52.392;9.758;2023-04-16T03:58:14;37.22;;;28.17;;
60464;SDS011;46314;52.392;9.758;2023-04-16T04:00:41;35.90;;;28.17;;
60464;SDS011;46314;52.392;9.758;2023-04-16T04:03:07;35.50;;;26.38;;
60464;SDS011;46314;52.392;9.758;2023-04-16T04:05:35;34.72;;;29.00;;
60464;SDS011;46314;52.392;9.758;2023-04-16T04:08:01;33.88;;;27.40;;
60464;SDS011;46314;52.392;9.758;2023-04-16T04:10:30;34.85;;;28.50;;
60464;SDS011;46314;52.392;9.758;2023-04-16T04:12:58;37.72;;;28.80;;
60464;SDS011;46314;52.392;9.758;2023-04-16T04:15:25;35.90;;;26.77;;
60464;SDS011;46314;52.392;9.758;2023-04-16T04:17:51;35.83;;;28.05;;
60464;SDS011;46314;52.392;9.758;2023-04-16T04:20:18;33.80;;;27.08;;
60464;SDS011;46314;52.392;9.758;2023-04-16T04:22:45;35.95;;;27.00;;
60464;SDS011;46314;52.392;9.758;2023-04-16T04:25:11;34.13;;;26.88;;
60464;SDS011;46314;52.392;9.758;2023-04-16T04:27:38;34.22;;;26.98;;
60464;SDS011;46314;52.392;9.758;2023-04-16T04:30:06;31.80;;;25.42;;
60464;SDS011;46314;52.392;9.758;2023-04-16T04:32:34;38.97;;;28.88;;
60464;SDS011;46314;52.392;9.758;2023-04-16T04:35:00;30.48;;;24.13;;
60464;SDS011;46314;52.392;9.758;2023-04-16T04:37:27;35.28;;;26.50;;
60464;SDS011;46314;52.392;9.758;2023-04-16T04:39:54;31.90;;;26.38;;
60464;SDS011;46314;52.392;9.758;2023-04-16T04:42:20;33.47;;;26.67;;
60464;SDS011;46314;52.392;9.758;2023-04-16T04:44:47;31.83;;;26.35;;
60464;SDS011;46314;52.392;9.758;2023-04-16T04:47:15;32.63;;;25.17;;
60464;SDS011;46314;52.392;9.758;2023-04-16T04:49:41;37.30;;;26.13;;
60464;SDS011;46314;52.392;9.758;2023-04-16T04:52:07;34.90;;;26.25;;
60464;SDS011;46314;52.392;9.758;2023-04-16T04:54:34;30.67;;;24.55;;
60464;SDS011;46314;52.392;9.758;2023-04-16T04:57:00;32.83;;;25.33;;
60464;SDS011;46314;52.392;9.758;2023-04-16T04:59:27;35.13;;;25.52;;
60464;SDS011;46314;52.392;9.758;2023-04-16T05:01:53;33.90;;;26.70;;
60464;SDS011;46314;52.392;9.758;2023-04-16T05:04:21;37.45;;;26.70;;
60464;SDS011;46314;52.392;9.758;2023-04-16T05:06:47;31.25;;;25.58;;
60464;SDS011;46314;52.392;9.758;2023-04-16T05:09:14;33.40;;;25.15;;
60464;SDS011;46314;52.392;9.758;2023-04-16T05:11:40;33.72;;;24.58;;
60464;SDS011;46314;52.392;9.758;2023-04-16T05:14:07;34.78;;;25.80;;
60464;SDS011;46314;52.392;9.758;2023-04-16T05:16:34;33.58;;;25.90;;
60464;SDS011;46314;52.392;9.758;2023-04-16T05:19:02;33.13;;;25.55;;
60464;SDS011;46314;52.392;9.758;2023-04-16T05:21:30;31.75;;;24.13;;
60464;SDS011;46314;52.392;9.758;2023-04-16T05:23:57;31.08;;;24.42;;
60464;SDS011;46314;52.392;9.758;2023-04-16T05:26:23;29.13;;;23.80;;
60464;SDS011;46314;52.392;9.758;2023-04-16T05:28:50;29.58;;;23.55;;
60464;SDS011;46314;52.392;9.758;2023-04-16T05:31:16;33.80;;;26.17;;
60464;SDS011;46314;52.392;9.758;2023-04-16T05:33:43;35.25;;;25.08;;
60464;SDS011;46314;52.392;9.758;2023-04-16T05:36:09;29.95;;;24.08;;
60464;SDS011;46314;52.392;9.758;2023-04-16T05:38:37;29.58;;;23.85;;
60464;SDS011;46314;52.392;9.758;2023-04-16T05:41:04;32.53;;;23.55;;
60464;SDS011;46314;52.392;9.758;2023-04-16T05:43:30;27.30;;;22.95;;
60464;SDS011;46314;52.392;9.758;2023-04-16T05:45:56;29.88;;;22.38;;
60464;SDS011;46314;52.392;9.758;2023-04-16T05:48:23;33.58;;;23.45;;
60464;SDS011;46314;52.392;9.758;2023-04-16T05:50:49;28.02;;;23.10;;
60464;SDS011;46314;52.392;9.758;2023-04-16T05:53:16;32.13;;;22.73;;
60464;SDS011;46314;52.392;9.758;2023-04-16T05:55:43;30.52;;;24.20;;
60464;SDS011;46314;52.392;9.758;2023-04-16T05:58:10;27.25;;;22.88;;
60464;SDS011;46314;52.392;9.758;2023-04-16T06:00:36;27.35;;;22.60;;
60464;SDS011;46314;52.392;9.758;2023-04-16T06:03:03;30.00;;;23.83;;
60464;SDS011;46314;52.392;9.758;2023-04-16T06:05:29;28.17;;;21.40;;
60464;SDS011;46314;52.392;9.758;2023-04-16T06:07:56;30.25;;;21.92;;
60464;SDS011;46314;52.392;9.758;2023-04-16T06:10:22;27.80;;;22.88;;
60464;SDS011;46314;52.392;9.758;2023-04-16T06:12:50;28.55;;;21.73;;
60464;SDS011;46314;52.392;9.758;2023-04-16T06:15:17;26.58;;;21.30;;
60464;SDS011;46314;52.392;9.758;2023-04-16T06:17:44;30.63;;;23.38;;
60464;SDS011;46314;52.392;9.758;2023-04-16T06:20:11;26.80;;;21.75;;
60464;SDS011;46314;52.392;9.758;2023-04-16T06:22:38;25.95;;;21.40;;
60464;SDS011;46314;52.392;9.758;2023-04-16T06:25:05;26.15;;;21.33;;
60464;SDS011;46314;52.392;9.758;2023-04-16T06:27:31;28.23;;;21.77;;
60464;SDS011;46314;52.392;9.758;2023-04-16T06:29:59;27.73;;;21.80;;
60464;SDS011;46314;52.392;9.758;2023-04-16T06:32:26;25.70;;;20.42;;
60464;SDS011;46314;52.392;9.758;2023-04-16T06:34:52;28.55;;;22.15;;
60464;SDS011;46314;52.392;9.758;2023-04-16T06:37:19;25.73;;;20.45;;
60464;SDS011;46314;52.392;9.758;2023-04-16T06:39:45;23.90;;;19.13;;
60464;SDS011;46314;52.392;9.758;2023-04-16T06:42:12;25.85;;;21.08;;
60464;SDS011;46314;52.392;9.758;2023-04-16T06:44:38;25.60;;;20.02;;
60464;SDS011;46314;52.392;9.758;2023-04-16T06:47:06;22.85;;;19.85;;
60464;SDS011;46314;52.392;9.758;2023-04-16T06:49:33;23.23;;;19.90;;
60464;SDS011;46314;52.392;9.758;2023-04-16T06:52:00;25.80;;;19.52;;
60464;SDS011;46314;52.392;9.758;2023-04-16T06:54:29;20.70;;;17.67;;
60464;SDS011;46314;52.392;9.758;2023-04-16T06:56:55;22.35;;;19.25;;
60464;SDS011;46314;52.392;9.758;2023-04-16T06:59:22;22.92;;;18.98;;
60464;SDS011;46314;52.392;9.758;2023-04-16T07:01:48;24.40;;;19.50;;
60464;SDS011;46314;52.392;9.758;2023-04-16T07:04:16;25.23;;;19.85;;
60464;SDS011;46314;52.392;9.758;2023-04-16T07:06:42;23.73;;;19.38;;
60464;SDS011;46314;52.392;9.758;2023-04-16T07:09:09;26.70;;;20.33;;
60464;SDS011;46314;52.392;9.758;2023-04-16T07:11:36;24.00;;;18.73;;
60464;SDS011;46314;52.392;9.758;2023-04-16T07:14:03;21.73;;;18.50;;
60464;SDS011;46314;52.392;9.758;2023-04-16T07:16:30;21.95;;;19.17;;
60464;SDS011;46314;52.392;9.758;2023-04-16T07:18:56;21.88;;;17.98;;
60464;SDS011;46314;52.392;9.758;2023-04-16T07:21:24;23.73;;;20.75;;
60464;SDS011;46314;52.392;9.758;2023-04-16T07:23:50;21.98;;;18.92;;
60464;SDS011;46314;52.392;9.758;2023-04-16T07:26:17;26.15;;;20.63;;
60464;SDS011;46314;52.392;9.758;2023-04-16T07:28:43;24.55;;;20.15;;
60464;SDS011;46314;52.392;9.758;2023-04-16T07:31:10;22.90;;;19.35;;
60464;SDS011;46314;52.392;9.758;2023-04-16T07:33:37;23.73;;;20.05;;
60464;SDS011;46314;52.392;9.758;2023-04-16T07:36:05;24.58;;;18.65;;
60464;SDS011;46314;52.392;9.758;2023-04-16T07:38:33;24.55;;;20.35;;
60464;SDS011;46314;52.392;9.758;2023-04-16T07:41:00;24.73;;;19.50;;
60464;SDS011;46314;52.392;9.758;2023-04-16T07:43:26;23.48;;;19.10;;
60464;SDS011;46314;52.392;9.758;2023-04-16T07:45:53;24.88;;;18.52;;
60464;SDS011;46314;52.392;9.758;2023-04-16T07:48:20;24.15;;;19.00;;
60464;SDS011;46314;52.392;9.758;2023-04-16T07:50:46;20.40;;;18.27;;
60464;SDS011;46314;52.392;9.758;2023-04-16T07:53:13;24.88;;;19.63;;
60464;SDS011;46314;52.392;9.758;2023-04-16T07:55:40;23.45;;;19.45;;
60464;SDS011;46314;52.392;9.758;2023-04-16T07:58:07;23.33;;;18.35;;
60464;SDS011;46314;52.392;9.758;2023-04-16T08:00:33;26.10;;;20.00;;
60464;SDS011;46314;52.392;9.758;2023-04-16T08:03:00;22.67;;;19.92;;
60464;SDS011;46314;52.392;9.758;2023-04-16T08:05:27;25.40;;;19.50;;
60464;SDS011;46314;52.392;9.758;2023-04-16T08:07:53;22.70;;;18.65;;
60464;SDS011;46314;52.392;9.758;2023-04-16T08:10:20;23.85;;;18.80;;
60464;SDS011;46314;52.392;9.758;2023-04-16T08:12:47;24.58;;;19.27;;
60464;SDS011;46314;52.392;9.758;2023-04-16T08:15:14;21.30;;;19.10;;
60464;SDS011;46314;52.392;9.758;2023-04-16T08:17:40;22.95;;;19.33;;
60464;SDS011;46314;52.392;9.758;2023-04-16T08:20:07;24.88;;;18.17;;
60464;SDS011;46314;52.392;9.758;2023-04-16T08:22:35;22.85;;;19.00;;
60464;SDS011;46314;52.392;9.758;2023-04-16T08:25:02;25.13;;;19.27;;
60464;SDS011;46314;52.392;9.758;2023-04-16T08:27:29;26.55;;;18.77;;
60464;SDS011;46314;52.392;9.758;2023-04-16T08:29:56;25.15;;;19.05;;
60464;SDS011;46314;52.392;9.758;2023-04-16T08:32:23;21.05;;;18.73;;
60464;SDS011;46314;52.392;9.758;2023-04-16T08:34:49;24.05;;;19.40;;
60464;SDS011;46314;52.392;9.758;2023-04-16T08:37:16;25.52;;;20.85;;
60464;SDS011;46314;52.392;9.758;2023-04-16T08:39:42;25.25;;;19.98;;
60464;SDS011;46314;52.392;9.758;2023-04-16T08:42:10;21.90;;;18.90;;
60464;SDS011;46314;52.392;9.758;2023-04-16T08:44:42;22.85;;;18.27;;
60464;SDS011;46314;52.392;9.758;2023-04-16T08:47:15;23.92;;;18.17;;
60464;SDS011;46314;52.392;9.758;2023-04-16T08:49:43;27.80;;;20.02;;
60464;SDS011;46314;52.392;9.758;2023-04-16T08:52:12;23.30;;;18.85;;
60464;SDS011;46314;52.392;9.758;2023-04-16T08:54:42;22.02;;;19.63;;
60464;SDS011;46314;52.392;9.758;2023-04-16T08:57:22;24.33;;;18.00;;
60464;SDS011;46314;52.392;9.758;2023-04-16T08:59:51;22.45;;;18.23;;
60464;SDS011;46314;52.392;9.758;2023-04-16T09:02:22;23.63;;;19.83;;
60464;SDS011;46314;52.392;9.758;2023-04-16T09:04:51;22.25;;;19.20;;
60464;SDS011;46314;52.392;9.758;2023-04-16T09:07:18;24.60;;;18.20;;
60464;SDS011;46314;52.392;9.758;2023-04-16T09:09:47;20.58;;;18.38;;
60464;SDS011;46314;52.392;9.758;2023-04-16T09:12:13;22.92;;;20.02;;
60464;SDS011;46314;52.392;9.758;2023-04-16T09:14:40;25.02;;;18.90;;
60464;SDS011;46314;52.392;9.758;2023-04-16T09:17:07;24.50;;;18.55;;
60464;SDS011;46314;52.392;9.758;2023-04-16T09:19:36;25.38;;;19.08;;
60464;SDS011;46314;52.392;9.758;2023-04-16T09:22:02;23.15;;;19.50;;
60464;SDS011;46314;52.392;9.758;2023-04-16T09:24:29;24.30;;;19.63;;
60464;SDS011;46314;52.392;9.758;2023-04-16T09:26:56;24.55;;;20.42;;
60464;SDS011;46314;52.392;9.758;2023-04-16T09:29:32;24.23;;;19.75;;
60464;SDS011;46314;52.392;9.758;2023-04-16T09:32:03;25.35;;;20.05;;
60464;SDS011;46314;52.392;9.758;2023-04-16T09:34:31;23.23;;;20.13;;
60464;SDS011;46314;52.392;9.758;2023-04-16T09:39:58;27.35;;;20.38;;
60464;SDS011;46314;52.392;9.758;2023-04-16T09:42:26;22.52;;;20.10;;
60464;SDS011;46314;52.392;9.758;2023-04-16T09:44:53;23.92;;;20.65;;
60464;SDS011;46314;52.392;9.758;2023-04-16T09:47:25;23.25;;;20.63;;
60464;SDS011;46314;52.392;9.758;2023-04-16T09:50:03;25.85;;;20.90;;
60464;SDS011;46314;52.392;9.758;2023-04-16T09:52:30;25.10;;;20.95;;
60464;SDS011;46314;52.392;9.758;2023-04-16T09:54:58;26.65;;;22.70;;
60464;SDS011;46314;52.392;9.758;2023-04-16T09:57:25;25.52;;;21.13;;
60464;SDS011;46314;52.392;9.758;2023-04-16T09:59:51;23.80;;;20.83;;
60464;SDS011;46314;52.392;9.758;2023-04-16T10:02:19;27.63;;;23.20;;
60464;SDS011;46314;52.392;9.758;2023-04-16T10:04:46;25.73;;;22.30;;
60464;SDS011;46314;52.392;9.758;2023-04-16T10:07:13;24.98;;;21.52;;
60464;SDS011;46314;52.392;9.758;2023-04-16T10:09:40;27.05;;;22.05;;
60464;SDS011;46314;52.392;9.758;2023-04-16T10:12:08;26.80;;;23.35;;
60464;SDS011;46314;52.392;9.758;2023-04-16T10:14:35;28.08;;;23.42;;
60464;SDS011;46314;52.392;9.758;2023-04-16T10:17:02;24.38;;;21.63;;
60464;SDS011;46314;52.392;9.758;2023-04-16T10:19:29;27.05;;;22.67;;
60464;SDS011;46314;52.392;9.758;2023-04-16T10:21:57;28.98;;;23.02;;
60464;SDS011;46314;52.392;9.758;2023-04-16T10:24:24;28.55;;;24.25;;
60464;SDS011;46314;52.392;9.758;2023-04-16T10:26:51;27.38;;;23.70;;
60464;SDS011;46314;52.392;9.758;2023-04-16T10:29:19;26.33;;;23.55;;
60464;SDS011;46314;52.392;9.758;2023-04-16T10:31:47;25.33;;;22.65;;
60464;SDS011;46314;52.392;9.758;2023-04-16T10:34:14;33.28;;;26.00;;
60464;SDS011;46314;52.392;9.758;2023-04-16T10:36:42;33.03;;;27.13;;
60464;SDS011;46314;52.392;9.758;2023-04-16T10:39:09;28.00;;;24.63;;
60464;SDS011;46314;52.392;9.758;2023-04-16T10:41:37;28.92;;;25.20;;
60464;SDS011;46314;52.392;9.758;2023-04-16T10:44:04;29.77;;;26.30;;
60464;SDS011;46314;52.392;9.758;2023-04-16T10:46:34;30.60;;;27.35;;
60464;SDS011;46314;52.392;9.758;2023-04-16T10:49:12;30.67;;;27.23;;
60464;SDS011;46314;52.392;9.758;2023-04-16T10:51:42;30.42;;;27.25;;
60464;SDS011;46314;52.392;9.758;2023-04-16T10:54:19;31.20;;;27.80;;
60464;SDS011;46314;52.392;9.758;2023-04-16T10:56:48;32.60;;;26.98;;
60464;SDS011;46314;52.392;9.758;2023-04-16T10:59:16;31.50;;;26.58;;
60464;SDS011;46314;52.392;9.758;2023-04-16T11:01:46;30.20;;;26.08;;
60464;SDS011;46314;52.392;9.758;2023-04-16T11:04:26;27.73;;;24.65;;
60464;SDS011;46314;52.392;9.758;2023-04-16T11:07:01;29.63;;;24.52;;
60464;SDS011;46314;52.392;9.758;2023-04-16T11:09:42;30.17;;;26.02;;
60464;SDS011;46314;52.392;9.758;2023-04-16T11:12:11;28.60;;;25.52;;
60464;SDS011;46314;52.392;9.758;2023-04-16T11:14:38;29.75;;;25.40;;
60464;SDS011;46314;52.392;9.758;2023-04-16T11:17:06;28.77;;;24.02;;
60464;SDS011;46314;52.392;9.758;2023-04-16T11:19:34;30.23;;;26.85;;
60464;SDS011;46314;52.392;9.758;2023-04-16T11:22:01;29.15;;;25.35;;
60464;SDS011;46314;52.392;9.758;2023-04-16T11:24:28;29.70;;;26.50;;
60464;SDS011;46314;52.392;9.758;2023-04-16T11:26:55;28.20;;;25.15;;
60464;SDS011;46314;52.392;9.758;2023-04-16T11:29:21;32.55;;;27.88;;
60464;SDS011;46314;52.392;9.758;2023-04-16T11:31:48;31.23;;;27.45;;
60464;SDS011;46314;52.392;9.758;2023-04-16T11:34:17;30.00;;;26.63;;
60464;SDS011;46314;52.392;9.758;2023-04-16T11:36:44;31.08;;;27.25;;
60464;SDS011;46314;52.392;9.758;2023-04-16T11:39:11;29.98;;;26.77;;
60464;SDS011;46314;52.392;9.758;2023-04-16T11:41:41;31.88;;;27.88;;
60464;SDS011;46314;52.392;9.758;2023-04-16T11:44:15;32.35;;;28.10;;
60464;SDS011;46314;52.392;9.758;2023-04-16T11:46:42;30.23;;;26.77;;
60464;SDS011;46314;52.392;9.758;2023-04-16T11:49:09;30.85;;;27.70;;
60464;SDS011;46314;52.392;9.758;2023-04-16T11:51:40;39.50;;;31.27;;
60464;SDS011;46314;52.392;9.758;2023-04-16T11:54:07;33.05;;;27.90;;
60464;SDS011;46314;52.392;9.758;2023-04-16T11:56:37;33.70;;;27.88;;
60464;SDS011;46314;52.392;9.758;2023-04-16T11:59:07;33.30;;;27.45;;
60464;SDS011;46314;52.392;9.758;2023-04-16T12:01:35;35.65;;;29.38;;
60464;SDS011;46314;52.392;9.758;2023-04-16T12:04:03;32.22;;;27.40;;
60464;SDS011;46314;52.392;9.758;2023-04-16T12:06:30;31.40;;;27.67;;
60464;SDS011;46314;52.392;9.758;2023-04-16T12:08:58;29.13;;;26.05;;
60464;SDS011;46314;52.392;9.758;2023-04-16T12:11:37;30.15;;;26.30;;
60464;SDS011;46314;52.392;9.758;2023-04-16T12:14:08;30.45;;;27.15;;
60464;SDS011;46314;52.392;9.758;2023-04-16T12:16:35;29.42;;;25.75;;
60464;SDS011;46314;52.392;9.758;2023-04-16T12:19:01;28.38;;;25.23;;
60464;SDS011;46314;52.392;9.758;2023-04-16T12:21:36;28.05;;;24.98;;
60464;SDS011;46314;52.392;9.758;2023-04-16T12:24:05;29.10;;;24.90;;
60464;SDS011;46314;52.392;9.758;2023-04-16T12:26:36;27.70;;;23.88;;
60464;SDS011;46314;52.392;9.758;2023-04-16T12:29:17;29.02;;;25.92;;
60464;SDS011;46314;52.392;9.758;2023-04-16T12:31:45;30.52;;;27.17;;
60464;SDS011;46314;52.392;9.758;2023-04-16T12:34:12;32.55;;;27.23;;
60464;SDS011;46314;52.392;9.758;2023-04-16T12:37:04;29.75;;;26.67;;
60464;SDS011;46314;52.392;9.758;2023-04-16T12:39:33;30.50;;;27.25;;
60464;SDS011;46314;52.392;9.758;2023-04-16T12:41:59;28.98;;;25.38;;
60464;SDS011;46314;52.392;9.758;2023-04-16T12:44:26;30.00;;;26.20;;
60464;SDS011;46314;52.392;9.758;2023-04-16T12:46:52;27.10;;;24.15;;
60464;SDS011;46314;52.392;9.758;2023-04-16T12:49:19;30.85;;;27.20;;
60464;SDS011;46314;52.392;9.758;2023-04-16T12:51:45;29.63;;;26.42;;
60464;SDS011;46314;52.392;9.758;2023-04-16T12:54:12;30.35;;;25.60;;
60464;SDS011;46314;52.392;9.758;2023-04-16T12:56:39;27.60;;;24.40;;
60464;SDS011;46314;52.392;9.758;2023-04-16T12:59:09;26.40;;;22.42;;
60464;SDS011;46314;52.392;9.758;2023-04-16T13:01:36;25.92;;;22.98;;
60464;SDS011;46314;52.392;9.758;2023-04-16T13:04:02;28.40;;;25.35;;
60464;SDS011;46314;52.392;9.758;2023-04-16T13:06:29;26.50;;;23.67;;
60464;SDS011;46314;52.392;9.758;2023-04-16T13:08:56;25.25;;;22.65;;
60464;SDS011;46314;52.392;9.758;2023-04-16T13:11:22;27.50;;;24.60;;
60464;SDS011;46314;52.392;9.758;2023-04-16T13:13:50;28.42;;;24.40;;
60464;SDS011;46314;52.392;9.758;2023-04-16T13:16:16;26.98;;;23.23;;
60464;SDS011;46314;52.392;9.758;2023-04-16T13:18:43;26.38;;;23.58;;
60464;SDS011;46314;52.392;9.758;2023-04-16T13:21:09;23.48;;;21.13;;
60464;SDS011;46314;52.392;9.758;2023-04-16T13:23:36;24.23;;;21.50;;
60464;SDS011;46314;52.392;9.758;2023-04-16T13:26:02;24.77;;;21.92;;
60464;SDS011;46314;52.392;9.758;2023-04-16T13:28:28;24.85;;;22.35;;
60464;SDS011;46314;52.392;9.758;2023-04-16T13:30:56;24.70;;;22.05;;
60464;SDS011;46314;52.392;9.758;2023-04-16T13:33:23;25.52;;;22.75;;
60464;SDS011;46314;52.392;9.758;2023-04-16T13:35:49;24.45;;;20.63;;
60464;SDS011;46314;52.392;9.758;2023-04-16T13:38:16;22.20;;;19.90;;
60464;SDS011;46314;52.392;9.758;2023-04-16T13:40:42;20.40;;;18.23;;
60464;SDS011;46314;52.392;9.758;2023-04-16T13:43:09;18.70;;;16.65;;
60464;SDS011;46314;52.392;9.758;2023-04-16T13:45:36;17.88;;;16.08;;
60464;SDS011;46314;52.392;9.758;2023-04-16T13:48:04;21.05;;;18.95;;
60464;SDS011;46314;52.392;9.758;2023-04-16T13:50:30;18.67;;;16.13;;
60464;SDS011;46314;52.392;9.758;2023-04-16T13:52:57;18.00;;;16.20;;
60464;SDS011;46314;52.392;9.758;2023-04-16T13:55:23;17.00;;;15.20;;
60464;SDS011;46314;52.392;9.758;2023-04-16T13:57:50;15.98;;;14.27;;
60464;SDS011;46314;52.392;9.758;2023-04-16T14:00:16;15.32;;;13.85;;
60464;SDS011;46314;52.392;9.758;2023-04-16T14:02:43;16.00;;;12.82;;
60464;SDS011;46314;52.392;9.758;2023-04-16T14:05:11;16.23;;;14.52;;
60464;SDS011;46314;52.392;9.758;2023-04-16T14:07:37;16.30;;;14.63;;
60464;SDS011;46314;52.392;9.758;2023-04-16T14:10:04;14.68;;;13.13;;
60464;SDS011;46314;52.392;9.758;2023-04-16T14:12:31;17.40;;;13.93;;
60464;SDS011;46314;52.392;9.758;2023-04-16T14:14:57;16.30;;;14.60;;
60464;SDS011;46314;52.392;9.758;2023-04-16T14:17:24;15.07;;;13.48;;
60464;SDS011;46314;52.392;9.758;2023-04-16T14:19:50;16.17;;;13.90;;
60464;SDS011;46314;52.392;9.758;2023-04-16T14:22:18;16.65;;;13.68;;
60464;SDS011;46314;52.392;9.758;2023-04-16T14:24:44;16.90;;;13.95;;